Time;durP1;ratioP1;P1;durP2;ratioP2;P2;SDS_P1;SDS_P2;PMS_P1;PMS_P2;Temp;Humidity;BMP_temperature;BMP_pressure;BME280_temperature;BME280_humidity;BME280_pressure;Samples;Min_cycle;Max_cycle;Signal;HPM_P1;HPM_P2
2022/04/04 00:00:07;;;;;;;2.08;1.35;;;;;;;21.28;25.84;99407.22;5130410;28;20035;-60
2022/04/04 00:02:33;;;;;;;2.10;1.40;;;;;;;21.28;26.12;99410.00;5129681;28;20043;-60
2022/04/04 00:04:58;;;;;;;2.05;1.40;;;;;;;21.28;26.21;99407.22;5130530;28;20091;-59
2022/04/04 00:07:24;;;;;;;2.25;1.45;;;;;;;21.25;26.08;99410.75;5130652;28;20047;-59
2022/04/04 00:09:50;;;;;;;2.13;1.35;;;;;;;21.26;26.18;99406.78;5130465;28;20039;-59
2022/04/04 00:12:16;;;;;;;2.33;1.42;;;;;;;21.28;26.01;99407.22;5130278;28;20142;-60
2022/04/04 00:14:42;;;;;;;2.40;1.60;;;;;;;21.26;25.92;99404.00;5130373;28;20043;-60
2022/04/04 00:17:07;;;;;;;2.00;1.30;;;;;;;21.24;25.92;99394.44;5130273;28;20138;-59
2022/04/04 00:19:33;;;;;;;2.03;1.27;;;;;;;21.26;25.96;99401.22;5130258;28;20529;-59
2022/04/04 00:21:58;;;;;;;1.90;1.23;;;;;;;21.27;26.01;99399.25;5130464;28;20051;-59
2022/04/04 00:24:24;;;;;;;2.00;1.38;;;;;;;21.27;26.12;99402.81;5130330;28;20078;-60
2022/04/04 00:26:50;;;;;;;1.83;1.20;;;;;;;21.25;26.21;99405.19;5130288;28;20039;-59
2022/04/04 00:29:15;;;;;;;2.17;1.30;;;;;;;21.26;26.23;99417.13;5130235;28;20066;-59
2022/04/04 00:31:40;;;;;;;2.08;1.30;;;;;;;21.25;26.38;99407.19;5130148;28;20414;-60
2022/04/04 00:34:06;;;;;;;2.10;1.38;;;;;;;21.25;26.04;99405.19;5130145;28;20138;-59
2022/04/04 00:36:31;;;;;;;1.70;1.20;;;;;;;21.25;26.09;99399.63;5130115;28;20093;-59
2022/04/04 00:38:57;;;;;;;2.17;1.40;;;;;;;21.27;25.88;99413.16;5129945;28;20071;-59
2022/04/04 00:41:25;;;;;;;2.28;1.20;;;;;;;21.25;26.13;99409.97;5113738;28;20041;-60
2022/04/04 00:43:53;;;;;;;2.03;1.30;;;;;;;21.25;26.17;99413.53;5133778;28;20035;-59
2022/04/04 00:46:20;;;;;;;2.13;1.48;;;;;;;21.24;26.15;99406.38;5133736;28;20043;-60
2022/04/04 00:48:46;;;;;;;3.13;1.60;;;;;;;21.24;26.27;99411.94;5133661;28;20410;-60
2022/04/04 00:51:12;;;;;;;2.13;1.40;;;;;;;21.25;26.00;99412.75;5133456;28;20050;-60
2022/04/04 00:53:37;;;;;;;2.40;1.48;;;;;;;21.24;26.24;99408.34;5133288;28;20054;-60
2022/04/04 00:56:03;;;;;;;2.72;1.58;;;;;;;21.22;26.31;99402.34;5133624;28;20558;-60
2022/04/04 00:58:30;;;;;;;1.98;1.33;;;;;;;21.23;26.39;99410.34;5133565;28;20416;-59
2022/04/04 01:00:56;;;;;;;1.90;1.30;;;;;;;21.25;26.01;99413.53;5133493;28;20603;-59
2022/04/04 01:03:22;;;;;;;2.38;1.40;;;;;;;21.23;26.18;99407.56;5133364;28;20078;-60
2022/04/04 01:05:47;;;;;;;3.53;1.38;;;;;;;21.23;26.13;99410.34;5133413;28;20071;-60
2022/04/04 01:08:14;;;;;;;2.40;1.45;;;;;;;21.24;26.32;99405.56;5133361;28;20061;-60
2022/04/04 01:10:43;;;;;;;2.53;1.40;;;;;;;21.21;26.15;99409.09;5133098;28;20042;-60
2022/04/04 01:13:10;;;;;;;2.00;1.40;;;;;;;21.22;26.08;99413.47;5133066;28;20519;-60
2022/04/04 01:15:36;;;;;;;2.35;1.45;;;;;;;21.19;26.24;99401.13;5133279;28;20031;-59
2022/04/04 01:18:03;;;;;;;2.22;1.30;;;;;;;21.22;26.10;99410.69;5133094;28;20057;-60
2022/04/04 01:20:28;;;;;;;2.88;1.60;;;;;;;21.23;26.27;99403.97;5132743;28;20138;-59
2022/04/04 01:22:53;;;;;;;2.15;1.38;;;;;;;21.21;26.13;99401.53;5133029;28;20121;-60
2022/04/04 01:25:28;;;;;;;2.20;1.40;;;;;;;21.21;26.50;99400.75;5133118;28;20069;-60
2022/04/04 01:27:55;;;;;;;2.67;1.60;;;;;;;21.22;26.37;99408.75;5132986;28;20046;-60
2022/04/04 01:30:24;;;;;;;2.35;1.40;;;;;;;21.35;25.98;99404.53;5133020;28;20035;-60
2022/04/04 01:32:50;;;;;;;1.92;1.30;;;;;;;21.60;26.04;99409.63;5132834;28;20050;-60
2022/04/04 01:35:20;;;;;;;2.08;1.25;;;;;;;21.50;25.81;99408.28;5132709;28;20043;-60
2022/04/04 01:37:46;;;;;;;2.70;1.63;;;;;;;21.44;25.89;99401.50;5132918;28;20138;-60
2022/04/04 01:40:12;;;;;;;2.30;1.50;;;;;;;21.74;25.85;99407.00;5130572;28;20472;-59
2022/04/04 01:42:38;;;;;;;2.38;1.40;;;;;;;22.67;24.92;99400.28;5132916;28;20136;-59
2022/04/04 01:45:08;;;;;;;2.35;1.60;;;;;;;23.26;23.97;99405.84;5132926;28;20035;-60
2022/04/04 01:47:34;;;;;;;2.20;1.60;;;;;;;22.90;24.26;99416.00;5132716;28;20036;-60
2022/04/04 01:50:00;;;;;;;2.05;1.40;;;;;;;22.56;24.80;99401.38;5132778;28;20551;-59
2022/04/04 01:52:26;;;;;;;2.83;1.50;;;;;;;22.29;25.21;99406.34;5131957;27;20054;-60
2022/04/04 01:54:51;;;;;;;2.40;1.42;;;;;;;22.05;25.37;99400.13;5132310;28;20043;-60
2022/04/04 01:57:17;;;;;;;2.03;1.50;;;;;;;21.90;25.51;99404.78;5132569;28;20089;-59
2022/04/04 01:59:43;;;;;;;2.47;1.58;;;;;;;21.77;25.62;99405.41;5132433;28;20415;-59
2022/04/04 02:02:09;;;;;;;2.88;1.70;;;;;;;21.68;25.88;99400.16;5132530;28;20050;-60
2022/04/04 02:04:35;;;;;;;2.13;1.50;;;;;;;21.60;25.65;99406.84;5132574;28;20040;-60
2022/04/04 02:07:01;;;;;;;2.92;1.70;;;;;;;21.55;25.70;99402.41;5132319;28;20035;-60
2022/04/04 02:09:26;;;;;;;2.53;1.60;;;;;;;21.51;25.79;99414.69;5132357;28;20038;-60
2022/04/04 02:11:51;;;;;;;2.75;1.60;;;;;;;21.46;25.78;99406.66;5132295;28;20558;-60
2022/04/04 02:14:17;;;;;;;3.13;1.90;;;;;;;21.45;26.27;99413.41;5132294;28;20163;-60
2022/04/04 02:16:43;;;;;;;2.25;1.60;;;;;;;21.40;25.95;99409.78;5132070;28;20038;-60
2022/04/04 02:19:09;;;;;;;2.65;1.63;;;;;;;21.38;26.16;99411.34;5132118;28;20047;-60
2022/04/04 02:21:35;;;;;;;2.65;1.60;;;;;;;21.36;26.25;99414.50;5130130;28;20525;-59
2022/04/04 02:24:01;;;;;;;2.72;1.80;;;;;;;21.35;26.08;99414.88;5111282;28;20040;-60
2022/04/04 02:26:27;;;;;;;2.80;1.60;;;;;;;21.33;26.40;99406.09;5111835;28;20169;-59
2022/04/04 02:28:52;;;;;;;2.10;1.40;;;;;;;21.32;26.40;99410.06;5111499;28;20043;-60
2022/04/04 02:31:18;;;;;;;2.28;1.45;;;;;;;21.30;26.42;99407.69;5111497;28;20036;-60
2022/04/04 02:33:43;;;;;;;2.72;1.63;;;;;;;21.28;26.42;99410.00;5111216;28;20054;-60
2022/04/04 02:36:09;;;;;;;2.40;1.50;;;;;;;21.27;26.27;99410.38;5111530;28;20054;-60
2022/04/04 02:38:35;;;;;;;2.58;1.42;;;;;;;21.27;26.23;99408.38;5111212;28;20122;-60
2022/04/04 02:41:00;;;;;;;2.63;1.63;;;;;;;21.27;26.16;99411.16;5111122;28;20048;-60
2022/04/04 02:43:26;;;;;;;2.42;1.60;;;;;;;21.26;26.31;99411.56;5107340;28;20128;-60
2022/04/04 02:45:52;;;;;;;2.47;1.60;;;;;;;21.25;26.51;99410.75;5111316;28;20097;-60
2022/04/04 02:48:17;;;;;;;2.00;1.40;;;;;;;21.24;26.56;99406.38;5111110;28;20073;-60
2022/04/04 02:50:45;;;;;;;2.60;1.50;;;;;;;21.24;26.23;99406.38;5111289;28;20070;-60
2022/04/04 02:53:11;;;;;;;2.40;1.42;;;;;;;21.23;26.10;99413.13;5111095;28;20047;-60
2022/04/04 02:58:21;;;;;;;2.33;1.48;;;;;;;22.59;24.94;99417.38;5111174;28;20049;-60
2022/04/04 03:00:49;;;;;;;2.47;1.58;;;;;;;23.46;23.81;99414.69;5110903;28;20126;-60
2022/04/04 03:03:15;;;;;;;2.20;1.55;;;;;;;24.00;23.09;99418.47;5110826;28;20044;-60
2022/04/04 03:05:41;;;;;;;2.85;1.70;;;;;;;23.46;23.53;99415.50;5109802;28;20079;-60
2022/04/04 03:08:07;;;;;;;2.63;1.70;;;;;;;22.99;24.16;99420.03;5111029;28;20067;-60
2022/04/04 03:10:33;;;;;;;2.20;1.55;;;;;;;22.63;24.46;99412.59;5111023;28;20051;-60
2022/04/04 03:13:04;;;;;;;2.50;1.58;;;;;;;22.34;25.18;99417.94;5110690;28;20054;-60
2022/04/04 03:15:31;;;;;;;2.28;1.50;;;;;;;22.10;25.24;99415.75;5106675;28;20329;-60
2022/04/04 03:17:57;;;;;;;2.20;1.40;;;;;;;21.93;25.50;99420.72;5110511;28;20046;-59
2022/04/04 03:20:25;;;;;;;2.00;1.30;;;;;;;21.82;25.57;99417.03;5110375;28;20036;-60
2022/04/04 03:22:56;;;;;;;2.05;1.50;;;;;;;21.71;25.96;99416.09;5110757;28;20070;-60
2022/04/04 03:25:22;;;;;;;1.90;1.33;;;;;;;21.65;26.16;99415.66;5110775;28;20047;-60
2022/04/04 03:27:49;;;;;;;1.90;1.20;;;;;;;21.61;25.97;99419.56;5110643;28;20420;-59
2022/04/04 03:30:21;;;;;;;2.10;1.60;;;;;;;21.56;26.09;99417.13;5109089;28;20036;-59
2022/04/04 03:32:47;;;;;;;2.03;1.33;;;;;;;21.51;26.42;99409.13;5110313;28;20055;-60
2022/04/04 03:35:16;;;;;;;1.95;1.45;;;;;;;21.47;26.17;99411.84;5110395;28;20613;-59
2022/04/04 03:37:44;;;;;;;2.33;1.50;;;;;;;21.45;26.55;99413.41;5110350;28;20081;-59
2022/04/04 03:40:12;;;;;;;2.13;1.52;;;;;;;21.43;26.26;99416.56;5110427;28;20048;-60
2022/04/04 03:42:38;;;;;;;2.33;1.60;;;;;;;21.39;26.35;99418.50;5110518;28;20043;-59
2022/04/04 03:45:05;;;;;;;2.42;1.65;;;;;;;21.37;26.60;99415.31;5110531;28;20521;-60
2022/04/04 03:47:31;;;;;;;2.80;1.70;;;;;;;21.36;26.37;99414.50;5110264;28;20031;-59
2022/04/04 03:49:59;;;;;;;2.17;1.42;;;;;;;21.35;26.43;99414.88;5110274;28;20039;-59
2022/04/04 03:52:25;;;;;;;2.25;1.58;;;;;;;21.32;26.56;99419.22;5110350;28;20562;-60
2022/04/04 03:54:50;;;;;;;2.40;1.70;;;;;;;21.33;26.58;99414.47;5110222;28;20052;-60
2022/04/04 03:57:17;;;;;;;2.45;1.50;;;;;;;21.29;26.62;99411.66;5110111;28;20131;-60
2022/04/04 03:59:43;;;;;;;2.13;1.42;;;;;;;21.31;26.56;99423.19;5110180;28;20048;-60
2022/04/04 04:02:09;;;;;;;2.42;1.30;;;;;;;21.30;26.58;99427.16;5109926;28;20130;-60
2022/04/04 04:04:34;;;;;;;2.20;1.48;;;;;;;21.29;26.64;99428.34;5109972;28;20044;-55
2022/04/04 04:06:59;;;;;;;2.67;1.67;;;;;;;21.29;26.54;99422.78;5109938;28;20048;-53
2022/04/04 04:09:25;;;;;;;2.25;1.55;;;;;;;21.28;26.40;99426.72;5110034;28;20449;-54
2022/04/04 04:11:50;;;;;;;2.45;1.65;;;;;;;21.27;26.78;99424.28;5109955;28;20048;-53
2022/04/04 04:14:16;;;;;;;2.30;1.60;;;;;;;21.27;26.67;99436.22;5109861;28;20077;-53
2022/04/04 04:16:41;;;;;;;2.25;1.52;;;;;;;21.25;26.82;99430.22;5114880;28;20400;-52
2022/04/04 04:20:19;;;;;;;1.80;1.30;;;;;;;21.26;26.82;99431.81;5116585;28;20411;-53
2022/04/04 04:21:52;;;;;;;2.30;1.60;;;;;;;21.27;26.64;99432.63;5116362;28;20058;-50
2022/04/04 04:24:17;;;;;;;2.15;1.38;;;;;;;21.27;26.48;99433.44;5116730;28;20047;-50
2022/04/04 04:26:43;;;;;;;2.47;1.60;;;;;;;21.26;26.83;99428.25;5116587;28;20050;-51
2022/04/04 04:29:08;;;;;;;2.58;1.80;;;;;;;21.26;26.66;99431.03;5116520;28;20043;-53
2022/04/04 04:31:34;;;;;;;2.25;1.45;;;;;;;21.26;26.65;99434.59;5116585;28;20135;-53
2022/04/04 04:34:00;;;;;;;2.03;1.52;;;;;;;21.25;26.59;99435.78;5116348;28;20044;-53
2022/04/04 04:36:26;;;;;;;2.10;1.35;;;;;;;21.26;26.66;99436.59;5116372;28;20403;-53
2022/04/04 04:38:52;;;;;;;2.10;1.50;;;;;;;21.26;26.84;99436.59;5116383;28;20055;-52
2022/04/04 04:41:17;;;;;;;2.40;1.60;;;;;;;21.26;26.94;99440.16;5116243;28;20035;-53
2022/04/04 04:43:43;;;;;;;2.53;1.52;;;;;;;21.26;26.69;99444.94;5116450;28;20399;-60
2022/04/04 04:46:08;;;;;;;1.90;1.40;;;;;;;21.22;26.70;99444.91;5116232;28;20040;-59
2022/04/04 04:48:33;;;;;;;1.92;1.38;;;;;;;21.25;26.67;99440.56;5116485;28;20040;-59
2022/04/04 04:50:59;;;;;;;2.10;1.45;;;;;;;21.25;26.58;99449.69;5116471;28;20047;-60
2022/04/04 04:53:24;;;;;;;2.30;1.67;;;;;;;21.26;26.80;99448.53;5116262;28;20177;-60
2022/04/04 04:55:50;;;;;;;2.03;1.50;;;;;;;21.26;26.73;99454.09;5116033;28;20131;-60
2022/04/04 04:58:16;;;;;;;1.90;1.40;;;;;;;21.25;26.90;99449.69;5116253;28;20043;-60
2022/04/04 05:00:41;;;;;;;2.20;1.50;;;;;;;21.27;27.11;99454.88;5116059;28;20036;-60
2022/04/04 05:03:25;;;;;;;2.97;1.73;;;;;;;21.27;26.88;99454.88;5116206;28;20039;-54
2022/04/04 05:05:50;;;;;;;2.35;1.45;;;;;;;21.25;26.85;99452.47;5116167;28;20051;-52
2022/04/04 05:08:16;;;;;;;2.13;1.52;;;;;;;21.25;26.90;99457.25;5116113;28;20048;-51
2022/04/04 05:10:42;;;;;;;2.38;1.60;;;;;;;21.25;27.20;99451.69;5115993;28;20044;-51
2022/04/04 05:13:08;;;;;;;2.30;1.50;;;;;;;21.24;26.85;99448.09;5115944;28;20081;-51
2022/04/04 05:15:33;;;;;;;2.45;1.70;;;;;;;21.23;26.96;99454.84;5114430;28;20062;-53
2022/04/04 05:17:59;;;;;;;2.25;1.58;;;;;;;21.24;26.91;99452.88;5115887;28;20523;-54
2022/04/04 05:20:24;;;;;;;1.88;1.40;;;;;;;21.26;27.21;99456.06;5116073;28;20089;-53
2022/04/04 05:22:50;;;;;;;2.47;1.55;;;;;;;21.25;26.99;99458.03;5115971;28;20047;-51
2022/04/04 05:25:15;;;;;;;2.20;1.70;;;;;;;21.25;27.17;99452.47;5115975;28;20502;-54
2022/04/04 05:27:41;;;;;;;2.45;1.60;;;;;;;21.24;27.23;99453.66;5113044;28;20094;-52
2022/04/04 05:30:08;;;;;;;2.83;1.60;;;;;;;21.24;27.23;99459.22;5112506;28;20044;-60
2022/04/04 05:32:34;;;;;;;2.42;1.65;;;;;;;21.24;27.11;99462.00;5112350;28;20043;-60
2022/04/04 05:35:01;;;;;;;2.33;1.63;;;;;;;21.22;27.29;99463.53;5112209;28;20035;-60
2022/04/04 05:37:26;;;;;;;2.63;1.70;;;;;;;21.24;27.09;99461.22;5112404;28;20044;-60
2022/04/04 05:39:51;;;;;;;1.90;1.40;;;;;;;21.22;27.01;99461.59;5112231;28;20048;-60
2022/04/04 05:42:17;;;;;;;2.40;1.45;;;;;;;21.29;27.29;99466.44;5112049;28;20044;-61
2022/04/04 05:44:42;;;;;;;3.58;1.50;;;;;;;21.84;26.99;99461.97;5112191;28;20062;-59
2022/04/04 05:47:11;;;;;;;11.93;1.65;;;;;;;22.70;25.82;99469.22;5112249;28;20031;-59
2022/04/04 05:49:37;;;;;;;1.95;1.40;;;;;;;23.51;24.96;99468.16;5112396;28;20100;-59
2022/04/04 05:52:03;;;;;;;6.40;1.92;;;;;;;23.67;24.36;99469.84;5112057;28;20036;-60
2022/04/04 05:54:28;;;;;;;13.32;2.20;;;;;;;23.20;24.81;99475.16;5111889;28;20040;-60
2022/04/04 05:56:54;;;;;;;17.55;2.40;;;;;;;22.78;25.39;99470.84;5111955;28;20495;-59
2022/04/04 05:59:19;;;;;;;4.20;1.85;;;;;;;22.46;25.75;99487.34;5112136;28;20434;-59
2022/04/04 06:01:44;;;;;;;10.50;1.90;;;;;;;22.23;25.92;99483.94;5111753;28;20058;-60
2022/04/04 06:04:10;;;;;;;5.18;2.08;;;;;;;22.03;26.26;99479.72;5111901;28;20040;-59
2022/04/04 06:06:38;;;;;;;5.32;1.83;;;;;;;21.88;26.44;99473.19;5111812;28;20127;-59
2022/04/04 06:09:04;;;;;;;5.65;1.67;;;;;;;21.77;26.72;99478.59;5111731;28;20054;-59
2022/04/04 06:11:29;;;;;;;4.10;1.70;;;;;;;21.71;26.82;99480.13;5111718;28;20043;-59
2022/04/04 06:13:55;;;;;;;2.88;1.90;;;;;;;21.63;26.81;99478.44;5111639;28;20130;-59
2022/04/04 06:16:20;;;;;;;3.42;1.80;;;;;;;21.56;26.97;99473.56;5111482;28;20155;-60
2022/04/04 06:18:46;;;;;;;3.88;1.60;;;;;;;21.55;26.85;99482.31;5111845;28;20050;-59
2022/04/04 06:21:11;;;;;;;3.08;1.85;;;;;;;21.52;26.90;99489.44;5111863;28;20050;-59
2022/04/04 06:23:36;;;;;;;4.97;1.90;;;;;;;21.50;27.15;99486.22;5111616;28;20050;-60
2022/04/04 06:26:06;;;;;;;6.13;1.80;;;;;;;21.49;26.76;99487.41;5111345;28;20244;-59
2022/04/04 06:28:34;;;;;;;7.40;1.77;;;;;;;21.47;27.02;99494.53;5111640;28;20036;-59
2022/04/04 06:31:01;;;;;;;2.63;1.77;;;;;;;21.45;27.04;99502.47;5111307;28;20048;-60
2022/04/04 06:33:27;;;;;;;4.78;1.77;;;;;;;21.42;27.01;99507.59;5111086;28;20066;-55
2022/04/04 06:35:54;;;;;;;6.03;2.00;;;;;;;21.41;26.87;99505.97;5111043;28;20078;-55
2022/04/04 06:38:19;;;;;;;4.15;1.95;;;;;;;21.41;27.27;99503.19;5111118;28;20039;-56
2022/04/04 06:40:45;;;;;;;4.18;1.80;;;;;;;21.42;27.31;99509.56;5122806;28;20084;-54
2022/04/04 06:43:11;;;;;;;2.90;1.77;;;;;;;21.39;27.09;99511.13;5130377;28;20054;-56
2022/04/04 06:45:36;;;;;;;2.95;1.88;;;;;;;21.41;26.92;99508.78;5131187;28;20055;-51
2022/04/04 06:48:02;;;;;;;5.55;1.90;;;;;;;21.41;27.22;99511.56;5130744;28;20050;-55
2022/04/04 06:50:30;;;;;;;5.50;1.88;;;;;;;21.40;27.36;99521.09;5131194;28;20043;-56
2022/04/04 06:52:56;;;;;;;3.47;1.65;;;;;;;21.41;27.45;99517.13;5129839;28;20055;-57
2022/04/04 06:55:21;;;;;;;2.70;1.77;;;;;;;21.41;27.51;99521.88;5130861;28;20055;-54
2022/04/04 06:57:47;;;;;;;2.78;1.80;;;;;;;21.42;27.09;99524.28;5130859;28;20050;-55
2022/04/04 07:00:16;;;;;;;3.75;1.90;;;;;;;21.42;27.43;99526.25;5129380;28;20039;-56
2022/04/04 07:02:43;;;;;;;2.85;1.88;;;;;;;21.42;27.41;99524.28;5129063;28;20086;-59
2022/04/04 07:05:08;;;;;;;3.03;2.00;;;;;;;21.40;27.72;99518.31;5123518;27;20046;-58
2022/04/04 07:07:35;;;;;;;3.47;2.00;;;;;;;21.42;27.47;99535.41;5127957;28;20031;-62
2022/04/04 07:10:01;;;;;;;2.92;1.88;;;;;;;21.43;27.44;99537.03;5118984;28;20135;-59
2022/04/04 07:12:27;;;;;;;2.78;1.98;;;;;;;21.43;27.67;99534.25;5122899;28;20386;-62
2022/04/04 07:14:53;;;;;;;4.43;1.95;;;;;;;21.49;27.58;99539.47;5128763;28;20047;-62
2022/04/04 07:17:20;;;;;;;3.45;1.85;;;;;;;21.50;27.58;99541.06;5130553;28;20407;-57
2022/04/04 07:19:45;;;;;;;3.00;1.95;;;;;;;21.50;27.32;99532.72;5130965;28;20058;-57
2022/04/04 07:22:11;;;;;;;4.38;2.42;;;;;;;21.51;27.69;99548.28;5130598;28;20433;-57
2022/04/04 07:24:37;;;;;;;2.40;1.75;;;;;;;21.55;27.74;99546.31;5129264;28;20051;-59
2022/04/04 07:27:03;;;;;;;2.63;1.90;;;;;;;21.57;27.69;99544.75;5131012;28;20051;-58
2022/04/04 07:29:28;;;;;;;2.58;1.85;;;;;;;21.60;27.43;99549.59;5129913;28;20135;-57
2022/04/04 07:31:54;;;;;;;3.10;1.80;;;;;;;21.64;27.25;99544.84;5128049;28;20141;-57
2022/04/04 07:34:20;;;;;;;4.28;1.90;;;;;;;21.62;27.42;99550.00;5129853;28;20046;-57
2022/04/04 07:36:45;;;;;;;5.70;2.30;;;;;;;21.61;27.59;99553.16;5130253;28;20047;-57
2022/04/04 07:39:10;;;;;;;3.10;1.92;;;;;;;21.60;27.68;99554.34;5129295;28;20060;-58
2022/04/04 07:41:36;;;;;;;4.18;1.80;;;;;;;21.60;27.68;99557.94;5130632;28;20042;-58
2022/04/04 07:44:01;;;;;;;3.75;1.90;;;;;;;21.60;27.64;99546.81;5129603;28;20035;-56
2022/04/04 07:46:27;;;;;;;2.40;1.70;;;;;;;21.62;27.75;99555.56;5121148;28;20070;-56
2022/04/04 07:48:57;;;;;;;3.00;1.92;;;;;;;21.62;27.69;99549.22;5129500;28;20038;-56
2022/04/04 07:51:22;;;;;;;2.97;2.00;;;;;;;21.61;27.72;99556.75;5129865;27;20403;-57
2022/04/04 07:53:48;;;;;;;3.03;1.90;;;;;;;21.62;27.55;99561.13;5122213;28;20069;-56
2022/04/04 07:56:14;;;;;;;3.25;1.92;;;;;;;21.62;27.65;99552.78;5129533;28;20050;-58
2022/04/04 07:58:39;;;;;;;3.42;2.20;;;;;;;21.63;27.50;99559.16;5129950;28;20478;-58
2022/04/04 08:01:05;;;;;;;3.80;2.15;;;;;;;21.61;28.10;99555.97;5127085;28;20065;-56
2022/04/04 08:03:30;;;;;;;2.85;2.00;;;;;;;21.62;28.33;99563.94;5116839;28;20043;-57
2022/04/04 08:05:56;;;;;;;2.78;2.13;;;;;;;21.62;27.99;99565.91;5116960;28;20053;-57
2022/04/04 08:08:21;;;;;;;2.80;2.05;;;;;;;21.64;28.39;99557.97;5116321;27;20051;-57
2022/04/04 08:10:47;;;;;;;3.10;2.08;;;;;;;21.69;28.63;99560.44;5119389;28;20407;-56
2022/04/04 08:13:12;;;;;;;3.47;2.13;;;;;;;21.69;28.79;99552.09;5118608;28;20043;-60
2022/04/04 08:15:38;;;;;;;3.30;2.22;;;;;;;21.71;28.84;99563.63;5118596;28;20054;-57
2022/04/04 08:18:04;;;;;;;2.50;1.90;;;;;;;21.71;28.47;99556.09;5123324;28;20038;-56
2022/04/04 08:20:29;;;;;;;2.53;1.90;;;;;;;21.71;28.48;99556.09;5121970;28;20108;-57
2022/04/04 08:22:55;;;;;;;3.03;2.13;;;;;;;21.70;28.48;99545.34;5122691;28;20116;-57
2022/04/04 08:25:21;;;;;;;2.78;1.98;;;;;;;21.74;28.40;99556.53;5119403;28;20152;-57
2022/04/04 08:27:46;;;;;;;3.20;2.10;;;;;;;21.74;28.29;99551.75;5117680;28;20445;-57
2022/04/04 08:30:13;;;;;;;3.47;2.10;;;;;;;21.75;28.00;99552.56;5129149;27;20510;-56
2022/04/04 08:32:39;;;;;;;3.28;2.10;;;;;;;21.73;28.05;99557.72;5117764;28;20048;-57
2022/04/04 08:35:10;;;;;;;4.15;2.20;;;;;;;21.79;28.12;99561.75;5110301;27;20416;-56
2022/04/04 08:37:37;;;;;;;5.90;2.20;;;;;;;21.78;28.38;99563.72;5103749;28;20054;-58
2022/04/04 08:40:04;;;;;;;2.70;1.60;;;;;;;22.04;28.87;99568.44;5095371;28;20036;-53
2022/04/04 08:42:30;;;;;;;4.65;1.80;;;;;;;21.94;27.83;99561.56;5100808;28;20739;-58
2022/04/04 08:45:00;;;;;;;3.40;2.10;;;;;;;21.80;28.05;99566.97;5094398;27;20042;-58
2022/04/04 08:47:29;;;;;;;3.08;1.75;;;;;;;21.76;27.92;99571.66;5096958;28;20561;-59
2022/04/04 08:49:56;;;;;;;3.65;1.90;;;;;;;21.71;28.29;99567.22;5100006;28;20055;-58
2022/04/04 08:52:23;;;;;;;2.95;1.98;;;;;;;21.69;28.02;99571.56;5103330;28;20063;-57
2022/04/04 08:54:49;;;;;;;2.63;1.80;;;;;;;21.68;28.16;99575.53;5103750;28;20039;-59
2022/04/04 08:57:16;;;;;;;2.47;1.70;;;;;;;21.66;28.36;99567.56;5103109;28;20043;-58
2022/04/04 08:59:42;;;;;;;4.75;1.88;;;;;;;21.70;28.14;99567.59;5102897;27;20056;-58
2022/04/04 09:02:07;;;;;;;3.20;1.95;;;;;;;21.68;27.91;99576.34;5103385;27;20047;-59
2022/04/04 09:04:33;;;;;;;2.95;2.13;;;;;;;21.69;28.09;99574.34;5107606;28;20470;-57
2022/04/04 09:07:05;;;;;;;3.90;2.10;;;;;;;21.69;27.97;99577.13;5105936;28;20048;-57
2022/04/04 09:09:40;;;;;;;3.13;2.05;;;;;;;21.70;28.08;99578.75;5106274;27;20092;-58
2022/04/04 09:12:07;;;;;;;4.25;2.53;;;;;;;21.69;28.04;99572.38;5106142;27;21046;-59
2022/04/04 09:14:57;;;;;;;2.85;2.00;;;;;;;21.70;28.16;99573.97;5107390;27;20045;-58
2022/04/04 09:17:25;;;;;;;5.05;2.00;;;;;;;21.72;28.15;99579.19;5101118;28;20132;-58
2022/04/04 09:19:51;;;;;;;4.80;2.10;;;;;;;21.70;28.13;99579.53;5107699;27;20054;-57
2022/04/04 09:22:18;;;;;;;3.28;2.00;;;;;;;21.70;28.49;99578.75;5106357;28;20055;-57
2022/04/04 09:24:55;;;;;;;4.03;2.30;;;;;;;21.73;28.43;99578.00;5105717;27;20088;-57
2022/04/04 09:27:23;;;;;;;5.93;2.17;;;;;;;21.74;28.57;99579.59;5105323;27;20035;-55
2022/04/04 09:29:59;;;;;;;3.78;2.17;;;;;;;21.78;28.90;99580.44;5104678;27;20141;-58
2022/04/04 09:32:38;;;;;;;3.17;2.10;;;;;;;21.80;28.57;99580.09;5106475;28;20047;-57
2022/04/04 09:35:18;;;;;;;3.83;2.15;;;;;;;21.83;29.16;99582.09;5108777;28;20051;-58
2022/04/04 09:37:48;;;;;;;5.47;1.98;;;;;;;21.83;29.42;99577.34;5105308;28;20052;-57
2022/04/04 09:40:19;;;;;;;4.90;1.80;;;;;;;21.84;29.28;99572.56;5103991;27;20047;-58
2022/04/04 09:42:51;;;;;;;2.72;1.83;;;;;;;21.88;29.35;99579.00;5100902;27;20047;-57
2022/04/04 09:45:18;;;;;;;3.55;1.98;;;;;;;21.91;29.74;99572.66;5107119;28;20132;-58
2022/04/04 09:47:55;;;;;;;2.50;1.50;;;;;;;22.01;29.30;99568.41;5100831;28;20051;-58
2022/04/04 09:50:37;;;;;;;19.30;14.05;;;;;;;22.22;28.43;99574.28;5106069;28;20043;-58
2022/04/04 09:53:07;;;;;;;34.13;22.77;;;;;;;22.30;27.68;99578.75;5090520;28;20058;-58
2022/04/04 09:55:38;;;;;;;21.35;15.35;;;;;;;22.05;27.59;99570.06;5105667;27;20067;-59
2022/04/04 09:58:07;;;;;;;19.63;14.15;;;;;;;21.96;27.64;99570.34;5104331;28;20047;-58
2022/04/04 10:00:37;;;;;;;18.58;12.25;;;;;;;21.96;27.79;99569.56;5105269;27;20687;-59
2022/04/04 10:03:05;;;;;;;15.98;11.02;;;;;;;21.95;28.10;99563.19;5105293;27;20082;-59
2022/04/04 10:05:31;;;;;;;14.75;9.73;;;;;;;21.99;28.55;99563.22;5101342;27;20104;-59
2022/04/04 10:07:57;;;;;;;13.48;8.70;;;;;;;22.03;28.27;99557.69;5103101;27;20040;-59
2022/04/04 10:10:30;;;;;;;11.75;7.65;;;;;;;22.06;28.49;99554.13;5107434;28;20503;-59
2022/04/04 10:12:57;;;;;;;9.50;6.60;;;;;;;22.07;28.58;99547.38;5102879;27;20044;-59
2022/04/04 10:15:24;;;;;;;10.63;6.30;;;;;;;22.11;28.76;99545.47;5106755;27;20043;-59
2022/04/04 10:17:51;;;;;;;8.75;6.15;;;;;;;22.16;28.50;99553.50;5103328;27;20123;-60
2022/04/04 10:20:18;;;;;;;8.25;5.80;;;;;;;22.15;28.65;99554.69;5101776;27;20067;-64
2022/04/04 10:22:47;;;;;;;7.28;4.97;;;;;;;22.17;28.67;99541.97;5105877;27;20044;-59
2022/04/04 10:25:18;;;;;;;6.75;4.72;;;;;;;22.13;28.55;99540.31;5102682;27;20047;-59
2022/04/04 10:27:48;;;;;;;6.18;4.50;;;;;;;22.12;28.50;99536.75;5120497;27;20047;-59
2022/04/04 10:30:16;;;;;;;6.65;4.50;;;;;;;22.07;28.37;99539.81;5124975;27;20043;-59
2022/04/04 10:32:50;;;;;;;6.20;4.20;;;;;;;22.06;28.21;99531.84;5125671;28;20054;-59
2022/04/04 10:35:20;;;;;;;5.97;3.67;;;;;;;22.03;28.11;99533.44;5120014;28;20374;-58
2022/04/04 10:37:46;;;;;;;11.52;3.75;;;;;;;22.02;28.32;99534.63;5112832;27;20534;-59
2022/04/04 10:40:22;;;;;;;6.07;3.60;;;;;;;22.01;28.16;99518.28;5108696;27;20050;-59
2022/04/04 10:43:01;;;;;;;5.82;3.30;;;;;;;21.98;28.14;99517.84;5107643;28;20040;-59
2022/04/04 10:45:29;;;;;;;6.53;2.88;;;;;;;21.99;28.01;99513.06;5114049;27;20043;-59
2022/04/04 10:48:04;;;;;;;5.28;2.90;;;;;;;21.97;28.19;99516.25;5118887;27;20541;-58
2022/04/04 10:50:30;;;;;;;3.90;2.90;;;;;;;21.95;28.55;99513.03;5112683;27;20062;-58
2022/04/04 10:53:01;;;;;;;5.90;2.75;;;;;;;21.92;28.36;99513.78;5113009;28;20594;-56
2022/04/04 10:55:42;;;;;;;7.88;2.70;;;;;;;21.91;28.29;99512.19;5112232;28;20450;-56
2022/04/04 10:58:19;;;;;;;3.60;2.30;;;;;;;21.89;28.02;99503.44;5109644;28;20039;-54
2022/04/04 11:01:20;;;;;;;4.28;2.70;;;;;;;21.91;27.97;99505.81;5112289;27;20065;-53
2022/04/04 11:03:48;;;;;;;7.18;2.83;;;;;;;21.93;28.14;99498.72;5117556;28;20074;-56
2022/04/04 11:09:12;;;;;;;3.58;2.35;;;;;;;22.01;28.05;99502.38;5118473;27;20148;-56
2022/04/04 11:11:43;;;;;;;4.47;2.85;;;;;;;22.04;27.76;99501.59;5114073;28;20047;-59
2022/04/04 11:14:09;;;;;;;7.20;2.83;;;;;;;21.91;27.22;99501.06;5111087;27;20039;-58
2022/04/04 11:17:08;;;;;;;3.80;2.83;;;;;;;21.81;27.10;99501.75;5116753;27;20035;-59
2022/04/04 11:19:53;;;;;;;4.20;2.60;;;;;;;21.79;27.43;99492.97;5113816;27;20059;-58
2022/04/04 11:22:22;;;;;;;3.45;2.05;;;;;;;21.79;27.46;99486.56;5114865;28;20047;-58
2022/04/04 11:25:03;;;;;;;3.75;2.40;;;;;;;21.75;27.58;99492.13;5109734;28;20532;-58
2022/04/04 11:27:34;;;;;;;2.95;1.95;;;;;;;21.73;27.71;99493.69;5113572;28;20122;-58
2022/04/04 11:30:04;;;;;;;2.97;1.77;;;;;;;21.73;27.98;99479.75;5108632;27;20407;-58
2022/04/04 11:32:33;;;;;;;2.92;1.73;;;;;;;21.75;27.73;99486.53;5116508;28;20043;-58
2022/04/04 11:35:01;;;;;;;2.92;1.77;;;;;;;21.74;27.83;99479.38;5122555;28;20051;-58
2022/04/04 11:37:29;;;;;;;2.67;1.85;;;;;;;21.73;27.77;99486.13;5113530;28;20043;-58